Time;durP1;ratioP1;P1;durP2;ratioP2;P2;SDS_P1;SDS_P2;PMS_P1;PMS_P2;Temp;Humidity;BMP_temperature;BMP_pressure;BME280_temperature;BME280_humidity;BME280_pressure;Samples;Min_cycle;Max_cycle;Signal;HPM_P1;HPM_P2
2023/03/05 00:02:08;;;;;;;16.83;3.10;;;;;;;;;;5038751;28;20013;-77
2023/03/05 00:04:34;;;;;;;11.80;3.03;;;;;;;;;;5051976;28;20096;-77
2023/03/05 00:07:00;;;;;;;12.32;3.40;;;;;;;;;;5055091;28;20033;-77
2023/03/05 00:09:26;;;;;;;10.95;2.92;;;;;;;;;;5054943;28;20110;-76
2023/03/05 00:11:53;;;;;;;10.35;2.97;;;;;;;;;;5054948;28;20479;-78
2023/03/05 00:14:19;;;;;;;9.95;2.53;;;;;;;;;;5054915;28;20029;-77
2023/03/05 00:16:45;;;;;;;14.10;3.53;;;;;;;;;;5042660;28;20495;-78
2023/03/05 00:19:11;;;;;;;13.73;4.85;;;;;;;;;;5017116;28;20124;-76
2023/03/05 00:21:38;;;;;;;13.40;2.80;;;;;;;;;;5034789;28;20044;-76
2023/03/05 00:24:06;;;;;;;12.60;3.13;;;;;;;;;;5034752;28;20021;-77
2023/03/05 00:26:34;;;;;;;14.88;3.10;;;;;;;;;;5045013;28;20029;-74
2023/03/05 00:29:01;;;;;;;14.55;3.20;;;;;;;;;;5039012;28;20038;-76
2023/03/05 00:31:32;;;;;;;14.80;3.75;;;;;;;;;;5034486;28;20030;-76
2023/03/05 00:34:00;;;;;;;12.25;3.45;;;;;;;;;;5034657;28;20032;-76
2023/03/05 00:36:26;;;;;;;17.05;3.90;;;;;;;;;;5016555;28;20484;-76
2023/03/05 00:38:52;;;;;;;9.60;2.67;;;;;;;;;;5034146;28;20053;-76
2023/03/05 00:41:18;;;;;;;19.85;4.97;;;;;;;;;;5034509;28;20032;-77
2023/03/05 00:43:44;;;;;;;17.45;5.03;;;;;;;;;;5035631;28;20479;-77
2023/03/05 00:46:10;;;;;;;22.15;4.75;;;;;;;;;;5016864;28;20112;-76
2023/03/05 00:48:36;;;;;;;15.10;3.17;;;;;;;;;;5034646;28;20499;-76
2023/03/05 00:51:02;;;;;;;9.57;3.05;;;;;;;;;;5042212;28;20030;-75
2023/03/05 00:53:28;;;;;;;15.43;3.83;;;;;;;;;;5045555;28;20026;-76
2023/03/05 00:55:54;;;;;;;15.98;3.38;;;;;;;;;;5044960;28;20029;-75
2023/03/05 00:58:20;;;;;;;15.75;3.60;;;;;;;;;;5040507;28;20021;-76
2023/03/05 01:00:49;;;;;;;12.95;3.70;;;;;;;;;;5047244;28;20032;-76
2023/03/05 01:03:15;;;;;;;18.02;3.67;;;;;;;;;;5037876;28;20032;-76
2023/03/05 01:05:42;;;;;;;11.23;2.88;;;;;;;;;;5034337;28;20079;-75
2023/03/05 01:08:08;;;;;;;16.20;3.65;;;;;;;;;;5033842;28;20101;-76
2023/03/05 01:10:34;;;;;;;12.02;2.70;;;;;;;;;;5034056;28;20109;-76
2023/03/05 01:13:00;;;;;;;18.80;3.60;;;;;;;;;;5034164;28;20077;-78
2023/03/05 01:15:26;;;;;;;17.40;3.67;;;;;;;;;;5033597;28;20041;-78
2023/03/05 01:17:52;;;;;;;13.70;3.13;;;;;;;;;;5032991;28;20044;-77
2023/03/05 01:20:19;;;;;;;10.82;3.10;;;;;;;;;;5033948;28;20148;-77
2023/03/05 01:22:45;;;;;;;13.93;3.40;;;;;;;;;;5033862;28;20022;-75
2023/03/05 01:25:12;;;;;;;13.93;2.70;;;;;;;;;;5033737;28;20035;-75
2023/03/05 01:27:38;;;;;;;12.30;2.80;;;;;;;;;;5033540;28;20022;-75
2023/03/05 01:30:04;;;;;;;16.98;3.03;;;;;;;;;;5033693;28;20029;-75
2023/03/05 01:32:30;;;;;;;9.88;3.13;;;;;;;;;;5033555;28;20034;-77
2023/03/05 01:34:56;;;;;;;13.00;3.05;;;;;;;;;;5033481;28;20510;-76
2023/03/05 01:37:22;;;;;;;10.48;2.53;;;;;;;;;;5033000;28;20147;-81
2023/03/05 01:39:48;;;;;;;11.35;2.65;;;;;;;;;;5033531;28;20100;-77
2023/03/05 01:42:14;;;;;;;9.70;2.45;;;;;;;;;;5033387;28;20018;-76
2023/03/05 01:44:59;;;;;;;14.68;3.03;;;;;;;;;;5033481;28;20021;-75
2023/03/05 01:47:25;;;;;;;10.32;2.95;;;;;;;;;;5033545;28;20105;-78
2023/03/05 01:49:51;;;;;;;7.63;2.25;;;;;;;;;;5038572;28;20041;-76
2023/03/05 01:52:18;;;;;;;14.13;2.90;;;;;;;;;;5053521;28;20085;-77
2023/03/05 01:54:47;;;;;;;12.27;3.30;;;;;;;;;;5053159;28;20024;-75
2023/03/05 01:57:15;;;;;;;15.50;2.28;;;;;;;;;;5052943;28;20072;-77
2023/03/05 01:59:42;;;;;;;16.10;4.07;;;;;;;;;;5053076;28;20017;-77
2023/03/05 02:02:08;;;;;;;17.63;4.35;;;;;;;;;;5053030;28;20379;-75
2023/03/05 02:04:41;;;;;;;14.85;2.88;;;;;;;;;;5053137;28;20071;-75
2023/03/05 02:07:07;;;;;;;16.30;3.60;;;;;;;;;;5052792;28;20021;-73
2023/03/05 02:09:33;;;;;;;14.00;3.45;;;;;;;;;;5052593;28;20021;-75
2023/03/05 02:11:59;;;;;;;9.05;2.45;;;;;;;;;;5034850;28;20395;-75
2023/03/05 02:14:26;;;;;;;13.93;3.10;;;;;;;;;;5025069;28;20052;-75
2023/03/05 02:16:52;;;;;;;12.88;2.47;;;;;;;;;;5032524;28;20022;-76
2023/03/05 02:19:18;;;;;;;10.77;3.17;;;;;;;;;;5032515;28;20021;-76
2023/03/05 02:21:45;;;;;;;14.10;2.67;;;;;;;;;;5036642;28;20021;-75
2023/03/05 02:24:12;;;;;;;11.70;2.50;;;;;;;;;;5052307;28;20386;-75
2023/03/05 02:26:39;;;;;;;22.75;3.28;;;;;;;;;;5052327;28;20497;-75
2023/03/05 02:29:07;;;;;;;11.35;3.50;;;;;;;;;;5051789;28;20138;-75
2023/03/05 02:31:33;;;;;;;11.65;2.28;;;;;;;;;;5052367;28;20028;-75
2023/03/05 02:33:59;;;;;;;11.65;3.03;;;;;;;;;;5052502;28;20048;-74
2023/03/05 02:36:25;;;;;;;16.85;3.28;;;;;;;;;;5050186;28;20119;-74
2023/03/05 02:38:52;;;;;;;13.40;3.42;;;;;;;;;;5031995;28;20468;-74
2023/03/05 02:41:18;;;;;;;18.65;4.50;;;;;;;;;;5032800;28;20026;-76
2023/03/05 02:43:44;;;;;;;11.95;2.78;;;;;;;;;;5052020;28;20021;-75
2023/03/05 02:46:10;;;;;;;7.93;2.38;;;;;;;;;;5052129;28;20021;-76
2023/03/05 02:48:45;;;;;;;11.95;2.65;;;;;;;;;;5052385;28;20059;-71
2023/03/05 02:51:11;;;;;;;9.40;2.83;;;;;;;;;;5052814;28;20025;-77
2023/03/05 02:53:37;;;;;;;13.95;2.78;;;;;;;;;;5053598;28;20066;-76
2023/03/05 02:56:03;;;;;;;10.40;2.92;;;;;;;;;;5034961;28;20020;-77
2023/03/05 02:58:29;;;;;;;17.20;2.55;;;;;;;;;;5035164;28;20037;-77
2023/03/05 03:00:55;;;;;;;5.80;2.10;;;;;;;;;;5052626;28;20041;-77
2023/03/05 03:03:21;;;;;;;8.45;2.85;;;;;;;;;;5052742;28;20048;-77
2023/03/05 03:05:47;;;;;;;10.05;2.53;;;;;;;;;;5052943;28;20021;-77
2023/03/05 03:08:14;;;;;;;9.18;2.60;;;;;;;;;;5052389;28;20482;-76
2023/03/05 03:10:40;;;;;;;11.85;2.65;;;;;;;;;;5052035;28;20035;-77
2023/03/05 03:13:06;;;;;;;12.63;3.15;;;;;;;;;;5034405;28;20032;-77
2023/03/05 03:15:33;;;;;;;9.77;2.47;;;;;;;;;;5052528;28;20036;-77
2023/03/05 03:17:59;;;;;;;9.40;2.75;;;;;;;;;;5043776;28;20429;-76
2023/03/05 03:20:25;;;;;;;12.15;2.63;;;;;;;;;;5032737;28;20064;-77
2023/03/05 03:22:51;;;;;;;10.00;2.42;;;;;;;;;;5015600;28;20472;-77
2023/03/05 03:25:19;;;;;;;6.43;1.80;;;;;;;;;;5033009;28;20064;-77
2023/03/05 03:27:45;;;;;;;7.55;1.92;;;;;;;;;;5032203;28;20495;-76
2023/03/05 03:30:11;;;;;;;8.80;2.42;;;;;;;;;;5028477;28;20026;-77
2023/03/05 03:32:37;;;;;;;8.35;1.90;;;;;;;;;;5029493;28;20093;-79
2023/03/05 03:35:04;;;;;;;7.45;1.98;;;;;;;;;;5032605;28;20100;-78
2023/03/05 03:37:30;;;;;;;13.00;1.73;;;;;;;;;;5031948;28;20033;-78
2023/03/05 03:39:56;;;;;;;6.60;2.15;;;;;;;;;;5036853;28;20107;-79
2023/03/05 03:42:22;;;;;;;10.23;1.90;;;;;;;;;;5051301;28;20479;-76
2023/03/05 03:44:49;;;;;;;9.85;2.13;;;;;;;;;;5051639;28;20502;-76
2023/03/05 03:47:15;;;;;;;12.30;2.67;;;;;;;;;;5042621;28;20044;-78
2023/03/05 03:49:41;;;;;;;7.38;1.77;;;;;;;;;;5031787;28;20026;-77
2023/03/05 03:52:07;;;;;;;10.95;2.47;;;;;;;;;;5032206;28;20024;-77
2023/03/05 03:54:33;;;;;;;7.68;2.35;;;;;;;;;;5014013;28;20029;-76
2023/03/05 03:56:59;;;;;;;6.18;2.00;;;;;;;;;;5031869;28;20028;-76
2023/03/05 03:59:25;;;;;;;10.55;1.70;;;;;;;;;;5031501;28;20025;-76
2023/03/05 04:01:51;;;;;;;7.28;1.75;;;;;;;;;;5031664;28;20104;-77
2023/03/05 04:04:17;;;;;;;4.72;1.70;;;;;;;;;;5031199;28;20475;-76
2023/03/05 04:06:43;;;;;;;5.82;1.25;;;;;;;;;;5031248;28;20030;-76
2023/03/05 04:09:09;;;;;;;5.47;1.20;;;;;;;;;;5031405;28;20039;-76
2023/03/05 04:11:36;;;;;;;4.85;1.73;;;;;;;;;;5031611;28;20037;-76
2023/03/05 04:14:03;;;;;;;8.63;1.40;;;;;;;;;;5031487;28;20278;-77
2023/03/05 04:16:29;;;;;;;12.90;2.58;;;;;;;;;;5031201;28;20025;-78
2023/03/05 04:18:55;;;;;;;4.45;1.35;;;;;;;;;;5013313;28;20124;-78
2023/03/05 04:21:21;;;;;;;8.63;1.30;;;;;;;;;;5031172;28;20041;-78
2023/03/05 04:23:47;;;;;;;4.30;1.30;;;;;;;;;;5031497;28;20044;-77
2023/03/05 04:26:13;;;;;;;5.70;1.35;;;;;;;;;;5039703;28;20021;-78
2023/03/05 04:28:39;;;;;;;9.35;1.75;;;;;;;;;;5051050;28;20075;-77
2023/03/05 04:31:05;;;;;;;4.22;1.45;;;;;;;;;;5051336;28;20040;-77
2023/03/05 04:33:31;;;;;;;10.52;1.63;;;;;;;;;;5049070;28;20071;-77
2023/03/05 04:35:57;;;;;;;6.40;1.35;;;;;;;;;;5031318;28;20109;-78
2023/03/05 04:38:23;;;;;;;9.43;1.27;;;;;;;;;;5031009;28;20360;-78
2023/03/05 04:40:49;;;;;;;9.02;1.17;;;;;;;;;;5031686;28;20041;-78
2023/03/05 04:43:15;;;;;;;7.20;1.40;;;;;;;;;;5031636;28;20021;-78
2023/03/05 04:45:42;;;;;;;7.47;1.80;;;;;;;;;;5051321;28;20371;-75
2023/03/05 04:48:09;;;;;;;7.53;2.33;;;;;;;;;;5051596;28;20078;-77
2023/03/05 04:50:35;;;;;;;12.45;2.08;;;;;;;;;;5052765;28;20021;-75
2023/03/05 04:53:01;;;;;;;6.38;1.92;;;;;;;;;;5055382;28;20025;-76
2023/03/05 04:55:27;;;;;;;7.57;2.42;;;;;;;;;;5055199;28;20021;-77
2023/03/05 04:57:53;;;;;;;7.97;1.80;;;;;;;;;;5057202;28;20116;-75
2023/03/05 05:00:19;;;;;;;14.27;2.40;;;;;;;;;;5054736;28;20017;-77
2023/03/05 05:02:46;;;;;;;9.48;1.80;;;;;;;;;;5055234;28;20024;-77
2023/03/05 05:05:13;;;;;;;5.78;1.60;;;;;;;;;;5036327;28;20040;-79
2023/03/05 05:07:39;;;;;;;6.45;1.77;;;;;;;;;;5050768;28;20034;-77
2023/03/05 05:10:06;;;;;;;8.48;2.17;;;;;;;;;;5034255;28;20028;-77
2023/03/05 05:12:33;;;;;;;4.82;1.75;;;;;;;;;;5034324;28;20022;-76
2023/03/05 05:14:59;;;;;;;6.03;2.17;;;;;;;;;;5034000;28;20022;-76
2023/03/05 05:17:25;;;;;;;6.50;2.80;;;;;;;;;;5052333;28;20017;-76
2023/03/05 05:19:51;;;;;;;9.30;2.60;;;;;;;;;;5054323;28;20040;-76
2023/03/05 05:22:17;;;;;;;8.32;1.88;;;;;;;;;;5054342;28;20013;-76
2023/03/05 05:24:43;;;;;;;3.88;2.30;;;;;;;;;;5036091;28;20115;-75
2023/03/05 05:27:09;;;;;;;6.43;2.45;;;;;;;;;;5053811;28;20025;-76
2023/03/05 05:29:35;;;;;;;8.90;2.80;;;;;;;;;;5053824;28;20415;-76
2023/03/05 05:32:01;;;;;;;7.18;2.85;;;;;;;;;;5054220;28;20024;-77
2023/03/05 05:34:27;;;;;;;4.75;2.58;;;;;;;;;;5036082;28;20025;-77
2023/03/05 05:36:53;;;;;;;7.38;2.58;;;;;;;;;;5054493;28;20051;-79
2023/03/05 05:39:19;;;;;;;7.43;2.70;;;;;;;;;;5022664;28;20029;-79
2023/03/05 05:41:45;;;;;;;4.80;2.17;;;;;;;;;;5039416;28;20387;-78
2023/03/05 05:44:11;;;;;;;4.60;2.10;;;;;;;;;;5061099;28;20020;-78
2023/03/05 05:46:37;;;;;;;4.45;1.85;;;;;;;;;;5060688;28;20028;-79
2023/03/05 05:49:03;;;;;;;6.43;2.67;;;;;;;;;;5059116;28;20047;-77
2023/03/05 05:51:29;;;;;;;7.60;1.83;;;;;;;;;;5057053;28;20120;-77
2023/03/05 05:53:56;;;;;;;8.80;3.08;;;;;;;;;;5057404;28;20025;-77
2023/03/05 05:56:22;;;;;;;6.00;3.20;;;;;;;;;;5059256;28;20013;-76
2023/03/05 05:58:48;;;;;;;7.95;2.90;;;;;;;;;;5059638;28;20079;-77
2023/03/05 06:01:28;;;;;;;7.10;3.60;;;;;;;;;;5043817;28;20025;-77
2023/03/05 06:03:55;;;;;;;7.10;2.80;;;;;;;;;;5038694;28;20043;-77
2023/03/05 06:06:22;;;;;;;9.27;3.10;;;;;;;;;;5048696;28;20014;-82
2023/03/05 06:08:48;;;;;;;2.78;2.00;;;;;;;;;;5057570;28;20022;-81
2023/03/05 06:11:14;;;;;;;4.05;1.80;;;;;;;;;;5057345;28;20037;-81
2023/03/05 06:13:40;;;;;;;8.32;2.35;;;;;;;;;;5057632;28;20070;-82
2023/03/05 06:16:08;;;;;;;6.82;2.22;;;;;;;;;;5040655;28;20021;-78
2023/03/05 06:18:35;;;;;;;5.40;2.10;;;;;;;;;;5039824;28;20049;-79
2023/03/05 06:21:03;;;;;;;10.45;2.42;;;;;;;;;;5040111;28;20034;-75
2023/03/05 06:23:29;;;;;;;6.10;2.30;;;;;;;;;;5032817;28;20057;-75
2023/03/05 06:25:58;;;;;;;4.07;1.92;;;;;;;;;;5032741;28;20036;-75
2023/03/05 06:28:24;;;;;;;8.98;2.13;;;;;;;;;;5032621;28;20033;-77
2023/03/05 06:30:50;;;;;;;4.22;1.85;;;;;;;;;;5032721;28;20107;-78
2023/03/05 06:33:16;;;;;;;7.55;2.17;;;;;;;;;;5032469;28;20025;-75
2023/03/05 06:35:42;;;;;;;3.05;1.67;;;;;;;;;;5032660;28;20036;-78
2023/03/05 06:38:09;;;;;;;6.72;1.98;;;;;;;;;;5032306;28;20463;-77
2023/03/05 06:40:35;;;;;;;5.00;1.92;;;;;;;;;;5033355;28;20387;-77
2023/03/05 06:43:01;;;;;;;5.47;1.65;;;;;;;;;;5033502;28;20459;-76
2023/03/05 06:45:27;;;;;;;4.13;1.88;;;;;;;;;;5032533;28;20021;-77
2023/03/05 06:47:53;;;;;;;4.47;1.80;;;;;;;;;;5037573;28;20021;-77
2023/03/05 06:50:19;;;;;;;2.15;1.05;;;;;;;;;;5034588;28;20451;-76
2023/03/05 06:52:48;;;;;;;8.43;2.55;;;;;;;;;;5052027;28;20021;-77
2023/03/05 06:55:14;;;;;;;2.70;1.40;;;;;;;;;;5051928;28;20024;-76
2023/03/05 06:57:43;;;;;;;6.10;1.30;;;;;;;;;;5053086;28;20168;-77
2023/03/05 07:00:10;;;;;;;4.78;1.05;;;;;;;;;;5053476;28;20021;-78
2023/03/05 07:02:39;;;;;;;4.55;1.00;;;;;;;;;;5052362;28;20442;-78
2023/03/05 07:05:06;;;;;;;4.20;0.85;;;;;;;;;;5034468;28;20018;-79
2023/03/05 07:07:33;;;;;;;8.18;2.95;;;;;;;;;;5034078;28;20029;-78
2023/03/05 07:09:59;;;;;;;3.05;1.20;;;;;;;;;;5052580;28;20032;-78
2023/03/05 07:12:25;;;;;;;2.85;1.20;;;;;;;;;;5052571;28;20035;-79
2023/03/05 07:14:51;;;;;;;1.33;0.85;;;;;;;;;;5033632;28;20052;-78
2023/03/05 07:17:17;;;;;;;4.30;1.20;;;;;;;;;;5051729;28;20105;-80
2023/03/05 07:19:43;;;;;;;5.00;1.15;;;;;;;;;;5052417;28;20383;-79
2023/03/05 07:22:09;;;;;;;1.52;0.80;;;;;;;;;;5053454;28;20021;-79
2023/03/05 07:24:36;;;;;;;2.53;1.08;;;;;;;;;;5040585;28;20460;-78
2023/03/05 07:27:02;;;;;;;2.22;1.08;;;;;;;;;;5032307;28;20025;-78
2023/03/05 07:29:28;;;;;;;3.53;1.10;;;;;;;;;;5031151;28;20033;-78
2023/03/05 07:31:54;;;;;;;2.13;0.93;;;;;;;;;;5030308;28;20037;-78
2023/03/05 07:34:21;;;;;;;2.17;0.90;;;;;;;;;;5030306;28;20032;-78
2023/03/05 07:36:51;;;;;;;3.72;1.33;;;;;;;;;;5032087;28;20057;-78
2023/03/05 07:39:18;;;;;;;6.50;1.65;;;;;;;;;;5031659;28;20100;-77
2023/03/05 07:41:44;;;;;;;3.35;1.10;;;;;;;;;;5030748;28;20380;-77
2023/03/05 07:44:10;;;;;;;2.63;1.00;;;;;;;;;;5038795;28;20025;-78
2023/03/05 07:46:36;;;;;;;3.42;1.38;;;;;;;;;;5048863;28;20033;-79
2023/03/05 07:49:02;;;;;;;5.63;1.17;;;;;;;;;;5007975;28;20037;-79
2023/03/05 07:51:28;;;;;;;2.30;1.00;;;;;;;;;;5031752;28;20104;-79
2023/03/05 07:53:56;;;;;;;1.38;0.70;;;;;;;;;;5038059;28;20021;-79
2023/03/05 07:56:27;;;;;;;3.50;1.58;;;;;;;;;;5052597;28;20234;-78
2023/03/05 07:58:54;;;;;;;4.30;1.17;;;;;;;;;;5052550;28;20017;-77
2023/03/05 08:01:20;;;;;;;4.82;1.30;;;;;;;;;;5034287;28;20021;-77
2023/03/05 08:03:46;;;;;;;5.00;1.20;;;;;;;;;;5033951;28;20017;-77
2023/03/05 08:06:12;;;;;;;3.70;1.65;;;;;;;;;;5051647;28;20081;-77
2023/03/05 08:08:38;;;;;;;3.72;1.30;;;;;;;;;;5040757;28;20029;-77
2023/03/05 08:11:09;;;;;;;3.80;1.55;;;;;;;;;;5013971;28;20059;-78
2023/03/05 08:13:35;;;;;;;2.08;1.48;;;;;;;;;;5032168;28;20512;-78
2023/03/05 08:16:08;;;;;;;3.60;1.13;;;;;;;;;;5014038;28;20033;-77
2023/03/05 08:18:34;;;;;;;2.72;1.02;;;;;;;;;;5031801;28;20025;-76
2023/03/05 08:21:01;;;;;;;2.13;1.10;;;;;;;;;;5032103;28;20034;-77
2023/03/05 08:23:27;;;;;;;3.85;1.48;;;;;;;;;;5033965;28;20228;-77
2023/03/05 08:25:54;;;;;;;5.93;1.52;;;;;;;;;;5053750;28;20025;-77
2023/03/05 08:28:20;;;;;;;5.05;1.40;;;;;;;;;;5056282;28;20052;-76
2023/03/05 08:30:46;;;;;;;5.60;1.77;;;;;;;;;;5055847;28;20021;-78
2023/03/05 08:33:13;;;;;;;4.32;1.70;;;;;;;;;;5021881;28;20059;-78
2023/03/05 08:35:39;;;;;;;4.88;1.77;;;;;;;;;;5035535;28;20255;-77
2023/03/05 08:38:06;;;;;;;5.10;1.80;;;;;;;;;;5035476;28;20025;-77
2023/03/05 08:40:32;;;;;;;2.97;1.52;;;;;;;;;;5018265;28;20029;-77
2023/03/05 08:42:58;;;;;;;5.07;2.08;;;;;;;;;;5017973;28;20025;-78
2023/03/05 08:45:26;;;;;;;4.53;1.40;;;;;;;;;;5035526;28;20033;-78
2023/03/05 08:47:52;;;;;;;3.72;1.77;;;;;;;;;;5035059;28;20545;-78
2023/03/05 08:50:21;;;;;;;2.50;1.40;;;;;;;;;;5018676;28;20056;-78
2023/03/05 08:52:47;;;;;;;3.97;1.65;;;;;;;;;;5034523;28;20037;-76
2023/03/05 08:55:13;;;;;;;3.17;1.60;;;;;;;;;;5034450;28;20034;-77
2023/03/05 08:57:39;;;;;;;5.90;2.08;;;;;;;;;;5053590;28;20148;-74
2023/03/05 09:00:06;;;;;;;3.63;1.75;;;;;;;;;;5055411;28;20588;-80
2023/03/05 09:02:32;;;;;;;4.55;2.10;;;;;;;;;;5044424;28;20032;-78
2023/03/05 09:04:58;;;;;;;4.50;2.55;;;;;;;;;;5034255;28;20079;-77
2023/03/05 09:07:24;;;;;;;4.97;2.65;;;;;;;;;;5033928;28;20037;-78
2023/03/05 09:09:50;;;;;;;7.80;2.72;;;;;;;;;;5038741;28;20483;-76
2023/03/05 09:12:16;;;;;;;4.15;2.30;;;;;;;;;;5054222;28;20025;-76
2023/03/05 09:14:42;;;;;;;4.80;2.50;;;;;;;;;;5036243;28;20028;-80
2023/03/05 09:17:08;;;;;;;9.32;3.40;;;;;;;;;;5053547;28;20395;-76
2023/03/05 09:19:34;;;;;;;3.25;2.95;;;;;;;;;;5051025;28;20070;-76
2023/03/05 09:22:00;;;;;;;5.70;3.30;;;;;;;;;;5033864;28;20017;-77
2023/03/05 09:24:26;;;;;;;4.93;3.03;;;;;;;;;;5016114;28;20072;-77
2023/03/05 09:26:52;;;;;;;3.63;2.53;;;;;;;;;;5047180;28;20037;-77
2023/03/05 09:29:18;;;;;;;7.72;2.75;;;;;;;;;;5053506;28;20060;-76
2023/03/05 09:31:44;;;;;;;10.05;3.72;;;;;;;;;;5035777;28;20021;-73
2023/03/05 09:34:11;;;;;;;5.95;3.00;;;;;;;;;;5037182;28;20044;-76
2023/03/05 09:36:37;;;;;;;7.57;3.83;;;;;;;;;;5030985;28;20447;-78
2023/03/05 09:39:05;;;;;;;7.10;3.42;;;;;;;;;;5032658;28;20017;-77
2023/03/05 09:41:33;;;;;;;5.45;3.22;;;;;;;;;;5032470;28;20032;-75
2023/03/05 09:44:02;;;;;;;12.35;3.80;;;;;;;;;;5032864;28;20652;-77
2023/03/05 09:46:47;;;;;;;10.43;3.85;;;;;;;;;;5018379;28;20021;-76
2023/03/05 09:49:16;;;;;;;7.72;3.63;;;;;;;;;;5012079;28;20606;-76
2023/03/05 09:51:45;;;;;;;7.80;3.88;;;;;;;;;;5017144;28;20549;-76
2023/03/05 09:54:19;;;;;;;10.10;3.35;;;;;;;;;;5033319;28;20048;-77
2023/03/05 09:56:48;;;;;;;4.28;2.67;;;;;;;;;;5027753;28;20021;-76
2023/03/05 09:59:23;;;;;;;5.60;3.10;;;;;;;;;;5053021;28;20025;-76
2023/03/05 10:01:49;;;;;;;3.75;2.50;;;;;;;;;;5053439;28;20090;-75
2023/03/05 10:04:18;;;;;;;4.40;2.55;;;;;;;;;;5053502;28;20029;-76
2023/03/05 10:06:56;;;;;;;6.10;3.00;;;;;;;;;;5052977;28;20036;-76
2023/03/05 10:09:43;;;;;;;5.75;2.67;;;;;;;;;;5046728;28;20025;-74
2023/03/05 10:12:30;;;;;;;7.47;2.85;;;;;;;;;;5032659;28;20103;-76
2023/03/05 10:14:59;;;;;;;7.55;2.97;;;;;;;;;;5032629;28;20025;-78
2023/03/05 10:17:37;;;;;;;6.15;3.08;;;;;;;;;;5016454;28;20022;-75
2023/03/05 10:20:10;;;;;;;5.25;2.67;;;;;;;;;;5052855;28;20009;-76
2023/03/05 10:22:51;;;;;;;5.88;3.22;;;;;;;;;;5052456;28;20116;-77
2023/03/05 10:25:23;;;;;;;6.65;3.40;;;;;;;;;;5052509;28;20064;-75
2023/03/05 10:27:50;;;;;;;4.35;2.90;;;;;;;;;;5052215;28;20025;-75
2023/03/05 10:30:21;;;;;;;4.40;3.15;;;;;;;;;;5034724;28;20028;-77
2023/03/05 10:32:59;;;;;;;6.63;2.90;;;;;;;;;;5052687;28;20071;-74
2023/03/05 10:35:28;;;;;;;5.03;2.65;;;;;;;;;;5052067;28;20025;-76
2023/03/05 10:37:54;;;;;;;2.70;1.60;;;;;;;;;;5052237;28;20021;-78
2023/03/05 10:40:36;;;;;;;4.53;1.75;;;;;;;;;;5037587;28;20032;-76
2023/03/05 10:43:01;;;;;;;7.90;2.17;;;;;;;;;;5026939;28;20033;-76
2023/03/05 10:45:29;;;;;;;4.88;2.20;;;;;;;;;;5031911;28;20030;-75
2023/03/05 10:47:59;;;;;;;4.82;2.15;;;;;;;;;;5031944;28;20025;-75
2023/03/05 10:50:26;;;;;;;3.00;2.15;;;;;;;;;;5032175;28;20099;-77
2023/03/05 10:53:12;;;;;;;5.07;2.05;;;;;;;;;;5031827;28;20107;-74
2023/03/05 10:55:42;;;;;;;3.58;2.40;;;;;;;;;;5031493;28;20021;-75
2023/03/05 10:58:16;;;;;;;3.65;2.20;;;;;;;;;;5038781;28;20019;-75
2023/03/05 11:00:58;;;;;;;3.90;2.33;;;;;;;;;;5052078;28;20039;-75
2023/03/05 11:03:24;;;;;;;4.47;2.17;;;;;;;;;;5052121;28;20070;-75
2023/03/05 11:05:57;;;;;;;5.85;2.47;;;;;;;;;;5051830;28;20496;-75
2023/03/05 11:08:26;;;;;;;5.90;2.83;;;;;;;;;;5051514;28;20025;-75
2023/03/05 11:11:05;;;;;;;2.60;2.40;;;;;;;;;;5048072;28;20034;-76
2023/03/05 11:13:32;;;;;;;5.95;2.80;;;;;;;;;;5031748;28;20037;-75
2023/03/05 11:16:00;;;;;;;9.52;3.40;;;;;;;;;;5031690;28;20017;-76
2023/03/05 11:18:27;;;;;;;4.10;2.50;;;;;;;;;;5031435;28;20041;-75
2023/03/05 11:21:06;;;;;;;7.88;3.05;;;;;;;;;;5031753;28;20025;-77
2023/03/05 11:23:32;;;;;;;5.03;2.53;;;;;;;;;;5030551;28;20028;-78
2023/03/05 11:26:02;;;;;;;5.47;2.80;;;;;;;;;;5033354;28;20046;-76
2023/03/05 11:28:28;;;;;;;5.55;2.65;;;;;;;;;;5040302;28;20052;-77
2023/03/05 11:30:59;;;;;;;5.35;3.42;;;;;;;;;;5055044;28;20029;-76
2023/03/05 11:33:25;;;;;;;6.38;3.33;;;;;;;;;;5041221;28;20029;-73
2023/03/05 11:35:52;;;;;;;8.98;4.43;;;;;;;;;;5032216;28;20064;-75
2023/03/05 11:38:25;;;;;;;6.35;3.40;;;;;;;;;;5040337;28;20021;-76
2023/03/05 11:40:55;;;;;;;5.18;3.58;;;;;;;;;;5051710;28;20069;-73
2023/03/05 11:43:23;;;;;;;7.75;4.20;;;;;;;;;;5033794;28;20021;-75
2023/03/05 11:45:50;;;;;;;7.57;4.20;;;;;;;;;;5031273;28;20079;-76
2023/03/05 11:48:24;;;;;;;7.72;4.38;;;;;;;;;;5031254;28;20438;-75
2023/03/05 11:51:00;;;;;;;7.78;4.47;;;;;;;;;;5031346;28;20033;-73
2023/03/05 11:53:28;;;;;;;9.23;4.70;;;;;;;;;;5013676;28;20033;-75
2023/03/05 11:55:57;;;;;;;7.43;4.55;;;;;;;;;;5036746;28;20048;-75
2023/03/05 11:58:41;;;;;;;6.40;4.32;;;;;;;;;;5041608;28;20029;-76
2023/03/05 12:01:20;;;;;;;8.13;5.07;;;;;;;;;;5033243;28;20502;-76
2023/03/05 12:03:47;;;;;;;5.70;4.20;;;;;;;;;;5039629;28;20390;-76
2023/03/05 12:06:13;;;;;;;10.80;4.85;;;;;;;;;;5055262;28;20017;-76
2023/03/05 12:08:41;;;;;;;7.57;5.05;;;;;;;;;;5055098;28;20021;-74
2023/03/05 12:11:14;;;;;;;8.05;5.07;;;;;;;;;;5055344;28;20146;-75
2023/03/05 12:13:43;;;;;;;9.93;5.03;;;;;;;;;;5055503;28;20558;-75
2023/03/05 12:16:12;;;;;;;9.50;5.93;;;;;;;;;;5055016;28;20017;-77
2023/03/05 12:18:57;;;;;;;9.40;6.00;;;;;;;;;;5054602;28;20017;-75
2023/03/05 12:21:32;;;;;;;7.72;5.47;;;;;;;;;;5055134;28;20116;-75
2023/03/05 12:24:00;;;;;;;6.97;5.03;;;;;;;;;;5049323;28;20014;-78
2023/03/05 12:26:45;;;;;;;9.60;5.72;;;;;;;;;;5034935;28;20041;-75
2023/03/05 12:29:29;;;;;;;10.20;5.95;;;;;;;;;;5034989;28;20105;-76
2023/03/05 12:31:55;;;;;;;9.73;6.00;;;;;;;;;;5040318;28;20029;-77
2023/03/05 12:34:36;;;;;;;8.82;5.70;;;;;;;;;;5054570;28;20021;-78
2023/03/05 12:37:03;;;;;;;7.57;5.15;;;;;;;;;;5054431;28;20029;-75
2023/03/05 12:39:46;;;;;;;9.68;5.80;;;;;;;;;;5046845;28;20104;-73
2023/03/05 12:42:27;;;;;;;9.02;5.75;;;;;;;;;;5042235;28;20120;-76
2023/03/05 12:45:13;;;;;;;8.05;6.07;;;;;;;;;;5037040;28;20053;-74
2023/03/05 12:47:39;;;;;;;9.55;5.22;;;;;;;;;;5050872;28;20519;-76
2023/03/05 12:50:25;;;;;;;8.02;5.18;;;;;;;;;;5034360;28;20061;-76
2023/03/05 12:52:54;;;;;;;9.88;5.10;;;;;;;;;;5047612;28;20027;-73
2023/03/05 12:55:26;;;;;;;8.50;5.72;;;;;;;;;;5053767;28;20029;-77
2023/03/05 12:57:58;;;;;;;6.63;4.90;;;;;;;;;;5054126;28;20028;-75
2023/03/05 13:00:24;;;;;;;;;;;;;;;;;;5055704;28;20075;-76
2023/03/05 13:02:54;;;;;;;10.55;5.40;;;;;;;;;;5055732;28;19920;-77
2023/03/05 13:05:23;;;;;;;7.30;5.20;;;;;;;;;;5054503;28;20039;-75
2023/03/05 13:07:50;;;;;;;8.18;5.22;;;;;;;;;;5054536;28;20063;-76
2023/03/05 13:10:27;;;;;;;6.47;4.20;;;;;;;;;;5046550;28;20017;-74
2023/03/05 13:12:54;;;;;;;6.57;5.00;;;;;;;;;;5034637;28;20561;-73
2023/03/05 13:15:22;;;;;;;5.80;4.15;;;;;;;;;;5034920;28;20412;-76
2023/03/05 13:17:51;;;;;;;7.70;4.88;;;;;;;;;;5054527;28;20033;-74
2023/03/05 13:20:23;;;;;;;6.88;4.00;;;;;;;;;;5054092;28;20025;-74
2023/03/05 13:23:02;;;;;;;6.40;4.13;;;;;;;;;;5053900;28;20021;-74
2023/03/05 13:25:28;;;;;;;8.55;3.90;;;;;;;;;;5053920;28;20025;-75
2023/03/05 13:28:02;;;;;;;4.95;3.08;;;;;;;;;;5053456;28;20383;-74
2023/03/05 13:30:28;;;;;;;5.65;3.53;;;;;;;;;;5053673;28;20025;-73
2023/03/05 13:32:57;;;;;;;6.22;3.28;;;;;;;;;;5035590;28;20052;-72
2023/03/05 13:35:23;;;;;;;6.50;3.45;;;;;;;;;;5053362;28;20028;-75
2023/03/05 13:37:49;;;;;;;6.55;3.55;;;;;;;;;;5053593;28;20151;-77
2023/03/05 13:40:20;;;;;;;6.65;3.08;;;;;;;;;;5040530;28;20013;-79
2023/03/05 13:42:46;;;;;;;4.57;3.00;;;;;;;;;;5048105;28;20079;-74
2023/03/05 13:45:31;;;;;;;5.97;3.20;;;;;;;;;;5030655;28;20037;-76
2023/03/05 13:48:06;;;;;;;3.92;2.95;;;;;;;;;;5033671;28;20025;-74
2023/03/05 13:50:37;;;;;;;8.70;3.17;;;;;;;;;;5033384;28;20032;-75
2023/03/05 13:53:18;;;;;;;5.10;3.00;;;;;;;;;;5033381;28;20625;-74
2023/03/05 13:55:45;;;;;;;5.00;3.08;;;;;;;;;;5033202;28;20029;-73
2023/03/05 13:58:34;;;;;;;8.35;3.65;;;;;;;;;;5032897;28;20029;-74
2023/03/05 14:01:08;;;;;;;4.18;3.03;;;;;;;;;;5020245;28;20227;-74
2023/03/05 14:03:34;;;;;;;5.80;2.80;;;;;;;;;;5032662;28;20021;-74
2023/03/05 14:06:01;;;;;;;4.53;2.78;;;;;;;;;;5033338;28;20072;-74
2023/03/05 14:08:27;;;;;;;5.88;3.75;;;;;;;;;;5032662;28;20021;-73
2023/03/05 14:10:55;;;;;;;6.47;3.30;;;;;;;;;;5033016;28;20517;-72
2023/03/05 14:13:23;;;;;;;4.45;3.08;;;;;;;;;;5032632;28;20021;-73
2023/03/05 14:16:25;;;;;;;6.82;2.90;;;;;;;;;;5037202;28;20025;-74
2023/03/05 14:18:53;;;;;;;5.85;3.00;;;;;;;;;;4952140;29;20046;-75
2023/03/05 14:21:20;;;;;;;5.28;2.88;;;;;;;;;;5033496;28;20025;-74
2023/03/05 14:23:51;;;;;;;6.90;3.42;;;;;;;;;;5036379;28;20468;-74
2023/03/05 14:26:31;;;;;;;6.95;2.85;;;;;;;;;;5052634;28;20013;-73
2023/03/05 14:29:11;;;;;;;3.53;2.72;;;;;;;;;;5052473;28;20041;-74
2023/03/05 14:31:59;;;;;;;5.60;3.03;;;;;;;;;;5049386;28;20025;-75
2023/03/05 14:34:30;;;;;;;7.15;3.05;;;;;;;;;;5032295;28;20025;-74
2023/03/05 14:36:58;;;;;;;5.50;3.85;;;;;;;;;;5032157;28;20622;-74
2023/03/05 14:39:29;;;;;;;5.80;3.83;;;;;;;;;;5032387;28;20022;-74
2023/03/05 14:41:55;;;;;;;;;;;;;;;;;;5015089;28;20018;-74
2023/03/05 14:44:24;;;;;;;5.22;3.20;;;;;;;;;;5032122;28;19911;-74
2023/03/05 14:46:50;;;;;;;4.35;3.58;;;;;;;;;;5032165;28;20017;-74
2023/03/05 14:49:17;;;;;;;8.75;4.30;;;;;;;;;;5032942;28;20029;-73